Time;durP1;ratioP1;P1;durP2;ratioP2;P2;SDS_P1;SDS_P2;PMS_P1;PMS_P2;Temp;Humidity;BMP_temperature;BMP_pressure;BME280_temperature;BME280_humidity;BME280_pressure;Samples;Min_cycle;Max_cycle;Signal;HPM_P1;HPM_P2
2023/02/08 00:01:10;;;;;;;54.88;20.98;;;4.90;89.10;;;;;;5104905;28;20032;-55
2023/02/08 00:03:35;;;;;;;62.00;21.38;;;4.80;89.10;;;;;;5086390;28;20028;-55
2023/02/08 00:06:01;;;;;;;78.72;22.63;;;4.80;89.00;;;;;;5103335;28;20030;-55
2023/02/08 00:08:27;;;;;;;71.38;21.65;;;4.80;89.00;;;;;;5103190;28;20027;-55
2023/02/08 00:10:52;;;;;;;73.45;21.73;;;4.80;89.00;;;;;;5103100;28;20035;-55
2023/02/08 00:13:18;;;;;;;56.90;20.67;;;4.80;89.00;;;;;;5103252;28;20020;-55
2023/02/08 00:15:44;;;;;;;53.65;19.38;;;4.80;89.10;;;;;;5103093;28;20028;-55
2023/02/08 00:18:10;;;;;;;59.92;20.02;;;4.70;89.10;;;;;;5086227;28;20028;-55
2023/02/08 00:20:38;;;;;;;56.78;20.98;;;4.70;88.90;;;;;;5103011;28;20038;-56
2023/02/08 00:23:03;;;;;;;69.32;20.20;;;4.70;89.00;;;;;;5104539;28;20078;-55
2023/02/08 00:25:29;;;;;;;65.75;20.90;;;4.60;89.00;;;;;;5108786;28;20039;-56
2023/02/08 00:27:54;;;;;;;67.55;21.27;;;4.70;89.20;;;;;;5108550;28;20043;-55
2023/02/08 00:30:20;;;;;;;54.20;19.45;;;4.60;89.00;;;;;;5106745;28;20028;-56
2023/02/08 00:32:45;;;;;;;56.17;19.45;;;4.60;88.90;;;;;;5108526;28;20040;-56
2023/02/08 00:35:11;;;;;;;51.53;19.27;;;4.60;89.00;;;;;;5089829;28;20397;-55
2023/02/08 00:37:36;;;;;;;48.63;19.60;;;4.60;89.70;;;;;;5090156;28;20028;-55
2023/02/08 00:40:04;;;;;;;49.17;19.10;;;4.60;89.00;;;;;;5106653;28;20063;-55
2023/02/08 00:42:30;;;;;;;55.17;19.42;;;4.50;88.90;;;;;;5108178;28;20031;-56
2023/02/08 00:44:56;;;;;;;53.92;20.13;;;4.50;88.90;;;;;;5106552;28;20040;-55
2023/02/08 00:47:21;;;;;;;47.58;19.00;;;4.50;88.80;;;;;;5106672;28;20035;-55
2023/02/08 00:49:47;;;;;;;46.05;18.67;;;4.40;88.60;;;;;;5089536;28;20031;-57
2023/02/08 00:52:12;;;;;;;46.55;18.20;;;4.40;88.70;;;;;;5089460;28;20020;-57
2023/02/08 00:54:38;;;;;;;46.55;18.08;;;4.40;88.90;;;;;;5106443;28;20032;-58
2023/02/08 00:57:03;;;;;;;45.05;18.38;;;4.40;88.90;;;;;;5107947;28;20034;-57
2023/02/08 00:59:29;;;;;;;47.70;17.35;;;4.40;89.00;;;;;;5107798;28;20099;-58
2023/02/08 01:01:54;;;;;;;47.17;19.23;;;4.30;88.90;;;;;;5106456;28;20448;-57
2023/02/08 01:04:20;;;;;;;50.33;18.55;;;4.40;88.80;;;;;;5107292;28;20058;-57
2023/02/08 01:06:45;;;;;;;35.72;16.95;;;4.30;88.80;;;;;;5072419;28;20028;-57
2023/02/08 01:09:11;;;;;;;35.00;16.80;;;4.30;88.80;;;;;;5107443;28;20024;-58
2023/02/08 01:11:37;;;;;;;56.25;19.63;;;4.30;88.70;;;;;;5106359;28;20027;-57
2023/02/08 01:14:02;;;;;;;35.00;18.25;;;4.30;88.70;;;;;;5089121;28;20053;-58
2023/02/08 01:16:31;;;;;;;47.92;17.35;;;4.30;88.80;;;;;;5107402;28;20039;-58
2023/02/08 01:18:58;;;;;;;37.10;18.40;;;4.20;88.80;;;;;;5089114;28;20070;-57
2023/02/08 01:21:28;;;;;;;42.08;17.98;;;4.20;88.70;;;;;;5089184;28;20032;-57
2023/02/08 01:23:53;;;;;;;34.05;17.02;;;4.20;88.70;;;;;;5089513;28;20093;-58
2023/02/08 01:26:19;;;;;;;36.15;16.48;;;4.20;88.80;;;;;;5089002;28;20115;-57
2023/02/08 01:28:45;;;;;;;43.63;17.02;;;4.20;88.80;;;;;;5072144;28;20357;-57
2023/02/08 01:31:16;;;;;;;38.60;17.77;;;4.10;88.60;;;;;;5105680;28;20141;-58
2023/02/08 01:33:42;;;;;;;35.80;17.58;;;4.10;88.70;;;;;;5105474;28;20107;-57
2023/02/08 01:36:08;;;;;;;37.88;17.08;;;4.10;88.60;;;;;;5088649;28;20035;-57
2023/02/08 01:38:34;;;;;;;48.03;17.58;;;4.10;88.70;;;;;;5088814;28;20043;-58
2023/02/08 01:41:00;;;;;;;34.92;17.13;;;4.00;88.60;;;;;;5088906;28;20028;-57
2023/02/08 01:43:28;;;;;;;24.38;15.50;;;4.10;88.60;;;;;;5105448;28;20489;-57
2023/02/08 01:45:54;;;;;;;33.28;15.82;;;4.00;88.60;;;;;;5106700;28;20043;-57
2023/02/08 01:48:34;;;;;;;32.63;17.00;;;4.00;88.60;;;;;;5088562;28;20032;-58
2023/02/08 01:51:24;;;;;;;39.25;16.98;;;4.00;88.60;;;;;;5106728;28;20036;-57
2023/02/08 01:53:50;;;;;;;32.95;16.60;;;4.00;88.70;;;;;;5077695;28;20051;-57
2023/02/08 01:56:45;;;;;;;31.98;15.88;;;4.00;88.70;;;;;;5071751;28;20039;-58
2023/02/08 01:59:17;;;;;;;33.75;16.23;;;4.00;88.60;;;;;;5097623;28;20047;-57
2023/02/08 02:01:43;;;;;;;31.85;16.77;;;4.00;88.60;;;;;;5071591;28;20096;-58
2023/02/08 02:04:08;;;;;;;39.63;17.30;;;4.00;88.70;;;;;;5105123;28;20078;-57
2023/02/08 02:06:37;;;;;;;28.92;16.92;;;4.00;88.60;;;;;;5105188;28;20032;-58
2023/02/08 02:09:14;;;;;;;35.35;16.52;;;3.90;88.60;;;;;;5088499;28;20035;-58
2023/02/08 02:11:40;;;;;;;25.40;15.05;;;3.90;88.50;;;;;;5105132;28;20035;-57
2023/02/08 02:14:06;;;;;;;33.00;15.65;;;3.90;88.40;;;;;;5071258;28;20032;-55
2023/02/08 02:16:31;;;;;;;29.05;15.98;;;3.90;88.40;;;;;;5087692;28;20024;-57
2023/02/08 02:18:57;;;;;;;31.08;16.20;;;3.90;88.30;;;;;;5105566;28;20083;-58
2023/02/08 02:21:37;;;;;;;25.30;15.02;;;3.90;88.40;;;;;;5088102;28;20027;-57
2023/02/08 02:24:24;;;;;;;29.42;15.98;;;3.90;88.40;;;;;;5106080;28;20024;-58
2023/02/08 02:26:53;;;;;;;24.25;14.50;;;3.90;88.30;;;;;;5106406;28;20081;-57
2023/02/08 02:29:30;;;;;;;25.23;15.43;;;3.90;88.30;;;;;;5106246;28;20032;-57
2023/02/08 02:32:12;;;;;;;29.70;14.70;;;3.90;88.30;;;;;;5104531;28;20036;-57
2023/02/08 02:35:08;;;;;;;28.33;14.25;;;3.80;88.20;;;;;;5088942;28;20024;-58
2023/02/08 02:37:48;;;;;;;29.65;15.00;;;3.80;88.20;;;;;;5103035;28;20035;-58
2023/02/08 02:40:51;;;;;;;35.95;15.65;;;3.80;88.10;;;;;;5104367;28;20020;-58
2023/02/08 02:43:41;;;;;;;30.17;16.17;;;3.80;88.20;;;;;;5105919;28;20024;-58
2023/02/08 02:46:27;;;;;;;22.83;13.60;;;3.80;88.10;;;;;;5089245;28;20024;-57
2023/02/08 02:49:05;;;;;;;;;;;3.80;88.10;;;;;;5104511;28;20032;-57
2023/02/08 02:51:30;;;;;;;22.40;13.75;;;3.70;88.00;;;;;;5105665;28;19908;-58
2023/02/08 02:54:18;;;;;;;22.17;13.65;;;3.70;87.90;;;;;;5105658;28;20042;-57
2023/02/08 02:56:46;;;;;;;28.33;14.55;;;3.80;88.00;;;;;;5104103;28;20091;-57
2023/02/08 02:59:12;;;;;;;29.02;14.27;;;3.70;88.00;;;;;;5087327;28;20084;-57
2023/02/08 03:01:38;;;;;;;27.88;14.50;;;3.70;88.00;;;;;;5087031;28;20059;-57
2023/02/08 03:04:14;;;;;;;29.70;15.77;;;3.70;87.90;;;;;;5103915;28;20448;-57
2023/02/08 03:07:17;;;;;;;23.35;14.57;;;3.70;87.90;;;;;;5103964;28;20115;-57
2023/02/08 03:10:03;;;;;;;28.33;13.55;;;3.70;88.00;;;;;;5104029;28;20482;-57
2023/02/08 03:12:47;;;;;;;27.35;15.35;;;3.70;87.90;;;;;;5087959;28;20046;-57
2023/02/08 03:15:27;;;;;;;25.08;14.77;;;3.70;87.80;;;;;;5089260;28;20039;-57
2023/02/08 03:18:16;;;;;;;22.55;15.15;;;3.70;87.90;;;;;;5103794;28;20036;-57
2023/02/08 03:21:01;;;;;;;20.23;14.55;;;3.70;87.90;;;;;;5103853;28;20068;-57
2023/02/08 03:23:29;;;;;;;28.08;14.25;;;3.70;87.80;;;;;;5103817;28;20368;-56
2023/02/08 03:26:12;;;;;;;22.73;14.93;;;3.70;87.90;;;;;;5086877;28;20094;-58
2023/02/08 03:29:10;;;;;;;26.55;14.45;;;3.70;87.90;;;;;;5104316;28;20032;-57
2023/02/08 03:31:38;;;;;;;22.10;14.77;;;3.70;87.80;;;;;;5104984;28;20032;-57
2023/02/08 03:34:27;;;;;;;28.27;14.80;;;3.60;87.60;;;;;;5103900;28;20028;-58
2023/02/08 03:36:56;;;;;;;21.80;14.27;;;3.70;87.60;;;;;;5087719;28;20024;-57
2023/02/08 03:39:28;;;;;;;26.75;15.55;;;3.60;87.60;;;;;;5103538;28;20020;-57
2023/02/08 03:42:00;;;;;;;26.10;14.70;;;3.70;87.70;;;;;;5103590;28;20031;-57
2023/02/08 03:44:29;;;;;;;21.17;14.10;;;3.60;87.60;;;;;;5103241;28;20043;-57
2023/02/08 03:47:01;;;;;;;25.58;14.40;;;3.60;87.60;;;;;;5104656;28;20046;-57
2023/02/08 03:49:29;;;;;;;21.00;13.95;;;3.60;87.60;;;;;;5070046;28;20107;-57
2023/02/08 03:51:57;;;;;;;22.23;14.98;;;3.60;87.60;;;;;;5086633;28;20032;-58
2023/02/08 03:54:24;;;;;;;25.17;14.25;;;3.60;87.60;;;;;;5069896;28;20051;-57
2023/02/08 03:57:12;;;;;;;23.33;14.45;;;3.60;87.50;;;;;;5086720;28;20036;-58
2023/02/08 03:59:40;;;;;;;25.10;14.52;;;3.60;87.40;;;;;;5090238;28;20028;-57
2023/02/08 04:02:09;;;;;;;21.88;14.23;;;3.60;87.40;;;;;;5073909;28;20031;-57
2023/02/08 04:04:39;;;;;;;22.30;14.63;;;3.60;87.30;;;;;;5090891;28;20146;-57
2023/02/08 04:07:05;;;;;;;21.65;14.18;;;3.60;87.20;;;;;;5090685;28;20040;-57
2023/02/08 04:09:31;;;;;;;24.42;14.68;;;3.60;86.90;;;;;;5108005;28;20045;-57
2023/02/08 04:11:56;;;;;;;17.50;13.00;;;3.60;87.00;;;;;;5107515;28;20039;-58
2023/02/08 04:14:22;;;;;;;19.30;13.75;;;3.60;87.60;;;;;;5090377;28;20111;-57
2023/02/08 04:16:47;;;;;;;23.92;13.43;;;3.60;88.20;;;;;;5090517;28;20024;-57
2023/02/08 04:19:13;;;;;;;22.23;14.43;;;3.60;88.70;;;;;;5107236;28;20062;-57
2023/02/08 04:21:38;;;;;;;22.73;14.55;;;3.60;89.20;;;;;;5107178;28;20439;-58
2023/02/08 04:24:04;;;;;;;22.60;14.05;;;3.60;89.70;;;;;;5108278;28;20044;-57
2023/02/08 04:26:29;;;;;;;21.20;14.45;;;3.60;89.70;;;;;;5090070;28;20042;-57
2023/02/08 04:28:55;;;;;;;23.10;14.13;;;3.60;89.80;;;;;;5106970;28;20050;-58
2023/02/08 04:31:21;;;;;;;19.67;13.55;;;3.60;89.90;;;;;;5107026;28;20383;-58
2023/02/08 04:33:46;;;;;;;24.13;13.68;;;3.60;89.80;;;;;;5108325;28;20012;-57
2023/02/08 04:36:12;;;;;;;24.63;16.27;;;3.60;89.70;;;;;;5108306;28;20092;-57
2023/02/08 04:38:37;;;;;;;24.38;14.80;;;3.60;89.80;;;;;;5106797;28;20035;-57
2023/02/08 04:41:03;;;;;;;24.25;14.95;;;3.60;89.80;;;;;;5106865;28;20032;-58
2023/02/08 04:43:28;;;;;;;29.52;16.60;;;3.60;89.70;;;;;;5106903;28;20027;-57
2023/02/08 04:45:54;;;;;;;30.60;15.98;;;3.60;89.70;;;;;;5106621;28;20036;-57
2023/02/08 04:48:19;;;;;;;22.95;15.98;;;3.60;89.50;;;;;;5107753;28;20067;-57
2023/02/08 04:50:45;;;;;;;30.02;15.80;;;3.60;89.40;;;;;;5107731;28;20024;-57
2023/02/08 04:53:11;;;;;;;27.35;17.55;;;3.60;89.40;;;;;;5107724;28;20036;-58
2023/02/08 04:55:36;;;;;;;35.53;17.08;;;3.60;89.20;;;;;;5106297;28;20024;-57
2023/02/08 04:58:02;;;;;;;34.45;16.95;;;3.60;89.00;;;;;;5106704;28;20479;-58
2023/02/08 05:00:27;;;;;;;33.20;18.20;;;3.60;88.70;;;;;;5089447;28;20051;-58
2023/02/08 05:02:53;;;;;;;31.20;17.55;;;3.60;88.40;;;;;;5107566;28;20109;-58
2023/02/08 05:05:19;;;;;;;34.80;18.42;;;3.60;88.30;;;;;;5089079;28;20119;-57
2023/02/08 05:07:44;;;;;;;29.98;17.60;;;3.60;88.20;;;;;;5089464;28;20031;-58
2023/02/08 05:10:10;;;;;;;29.40;16.75;;;3.60;88.00;;;;;;5105565;28;20033;-57
2023/02/08 05:12:36;;;;;;;41.75;19.13;;;3.60;87.90;;;;;;5107519;28;20103;-57
2023/02/08 05:15:01;;;;;;;40.88;18.48;;;3.60;87.80;;;;;;5107475;28;20032;-58
2023/02/08 05:17:27;;;;;;;47.70;17.73;;;3.60;87.70;;;;;;5106189;28;20058;-57
2023/02/08 05:19:52;;;;;;;38.58;17.60;;;3.60;87.60;;;;;;5107491;28;20024;-57
2023/02/08 05:22:18;;;;;;;29.58;17.70;;;3.50;87.40;;;;;;5105996;28;20031;-57
2023/02/08 05:24:43;;;;;;;33.05;17.20;;;3.50;87.40;;;;;;5107168;28;20024;-57
2023/02/08 05:27:09;;;;;;;34.67;16.63;;;3.50;87.30;;;;;;5105861;28;20067;-57
2023/02/08 05:29:34;;;;;;;31.95;18.17;;;3.50;87.30;;;;;;5105737;28;20035;-57
2023/02/08 05:32:00;;;;;;;28.80;16.73;;;3.50;87.30;;;;;;5105638;28;20028;-57
2023/02/08 05:34:25;;;;;;;29.30;16.40;;;3.50;87.10;;;;;;5107138;28;20028;-58
2023/02/08 05:36:51;;;;;;;24.15;16.92;;;3.50;87.10;;;;;;5105919;28;20077;-57
2023/02/08 05:39:16;;;;;;;26.98;16.80;;;3.50;87.10;;;;;;5105705;28;20356;-57
2023/02/08 05:41:42;;;;;;;25.75;16.23;;;3.50;87.10;;;;;;5105508;28;20034;-58
2023/02/08 05:44:07;;;;;;;27.70;15.77;;;3.50;87.00;;;;;;5106946;28;20032;-57
2023/02/08 05:46:33;;;;;;;33.75;17.67;;;3.50;87.00;;;;;;5106700;28;20060;-57
2023/02/08 05:48:58;;;;;;;27.27;17.05;;;3.50;87.00;;;;;;5105327;28;20028;-57
2023/02/08 05:51:24;;;;;;;33.67;16.52;;;3.50;87.00;;;;;;5105235;28;20096;-57
2023/02/08 05:53:50;;;;;;;28.73;16.27;;;3.40;86.90;;;;;;5106533;28;20024;-58
2023/02/08 05:56:15;;;;;;;28.40;16.05;;;3.50;87.00;;;;;;5105574;28;20443;-57
2023/02/08 05:58:41;;;;;;;28.80;15.90;;;3.50;86.90;;;;;;5106523;28;20028;-58
2023/02/08 06:01:11;;;;;;;22.73;15.98;;;3.50;86.90;;;;;;5106512;28;20032;-58
2023/02/08 06:03:37;;;;;;;26.35;15.68;;;3.40;86.80;;;;;;5089212;28;20020;-58
2023/02/08 06:06:03;;;;;;;24.98;16.05;;;3.50;86.90;;;;;;5105077;28;20103;-57
2023/02/08 06:08:29;;;;;;;40.42;16.77;;;3.50;87.20;;;;;;5088121;28;20024;-57
2023/02/08 06:10:54;;;;;;;29.50;16.50;;;3.40;87.20;;;;;;5088249;28;20034;-58
2023/02/08 06:13:20;;;;;;;30.45;17.13;;;3.40;87.50;;;;;;5105012;28;20437;-57
2023/02/08 06:15:45;;;;;;;25.65;15.82;;;3.40;87.50;;;;;;5106349;28;20036;-57
2023/02/08 06:18:11;;;;;;;30.77;16.48;;;3.40;87.50;;;;;;5104819;28;20055;-57
2023/02/08 06:20:36;;;;;;;25.42;16.40;;;3.40;87.50;;;;;;5087060;28;20081;-57
2023/02/08 06:23:02;;;;;;;23.90;15.13;;;3.40;87.60;;;;;;5088038;28;20031;-57
2023/02/08 06:25:28;;;;;;;26.85;16.95;;;3.40;87.50;;;;;;5104707;28;20082;-57
2023/02/08 06:27:53;;;;;;;27.92;16.85;;;3.40;87.40;;;;;;5087738;28;20036;-57
2023/02/08 06:30:19;;;;;;;25.35;15.98;;;3.40;87.50;;;;;;5104452;28;20392;-57
2023/02/08 06:32:45;;;;;;;26.70;16.40;;;3.40;87.40;;;;;;5104272;28;20028;-57
2023/02/08 06:35:11;;;;;;;28.50;16.17;;;3.40;87.40;;;;;;5104637;28;20039;-57
2023/02/08 06:37:36;;;;;;;29.10;16.45;;;3.40;87.40;;;;;;5104728;28;20036;-58
2023/02/08 06:40:02;;;;;;;21.88;15.70;;;3.40;87.40;;;;;;5087479;28;20028;-58
2023/02/08 06:42:28;;;;;;;24.77;16.05;;;3.40;87.40;;;;;;5087536;28;20042;-58
2023/02/08 06:44:54;;;;;;;21.60;15.00;;;3.50;87.30;;;;;;5104000;28;20047;-58
2023/02/08 06:47:21;;;;;;;24.10;15.13;;;3.40;87.10;;;;;;5104271;28;20043;-57
2023/02/08 06:49:46;;;;;;;20.45;15.05;;;3.40;87.10;;;;;;5105628;28;20028;-57
2023/02/08 06:52:12;;;;;;;20.65;14.77;;;3.40;87.10;;;;;;5104005;28;20028;-57
2023/02/08 06:54:37;;;;;;;27.17;15.35;;;3.40;87.20;;;;;;5104060;28;20028;-57
2023/02/08 06:57:04;;;;;;;21.63;14.25;;;3.40;87.20;;;;;;5105570;28;20050;-58
2023/02/08 06:59:30;;;;;;;22.73;16.08;;;3.40;87.20;;;;;;5087412;28;20024;-58
2023/02/08 07:01:56;;;;;;;22.33;15.05;;;3.40;87.10;;;;;;5105358;28;20061;-57
2023/02/08 07:04:21;;;;;;;21.75;14.02;;;3.40;87.00;;;;;;5103892;28;20482;-57
2023/02/08 07:06:48;;;;;;;24.48;15.80;;;3.40;86.90;;;;;;5087205;28;20028;-57
2023/02/08 07:09:14;;;;;;;18.85;15.32;;;3.40;86.90;;;;;;5103928;28;20028;-57
2023/02/08 07:11:40;;;;;;;25.08;15.80;;;3.40;86.80;;;;;;5103820;28;20118;-57
2023/02/08 07:14:05;;;;;;;19.83;14.98;;;3.40;86.80;;;;;;5103728;28;20115;-58
2023/02/08 07:16:31;;;;;;;19.27;15.32;;;3.40;86.70;;;;;;5103961;28;20032;-58
2023/02/08 07:18:56;;;;;;;21.33;15.13;;;3.40;86.70;;;;;;5105044;28;20117;-57
2023/02/08 07:21:23;;;;;;;26.92;15.48;;;3.40;86.70;;;;;;5103970;28;20028;-57
2023/02/08 07:23:48;;;;;;;21.48;15.65;;;3.40;86.60;;;;;;5103696;28;20030;-57
2023/02/08 07:26:14;;;;;;;22.30;14.80;;;3.40;86.50;;;;;;5104927;28;20436;-57
2023/02/08 07:28:39;;;;;;;20.05;15.35;;;3.40;86.50;;;;;;5103756;28;20031;-57
2023/02/08 07:31:06;;;;;;;21.95;14.38;;;3.30;86.40;;;;;;5103547;28;20054;-58
2023/02/08 07:33:32;;;;;;;20.48;14.63;;;3.40;86.50;;;;;;5086746;28;20023;-57
2023/02/08 07:35:57;;;;;;;22.75;14.82;;;3.30;86.40;;;;;;5103828;28;20024;-58
2023/02/08 07:38:23;;;;;;;17.20;14.27;;;3.30;87.00;;;;;;5104996;28;20107;-58
2023/02/08 07:40:48;;;;;;;19.33;13.00;;;3.30;86.30;;;;;;5103541;28;20539;-57
2023/02/08 07:43:14;;;;;;;18.02;13.63;;;3.30;86.20;;;;;;5104675;28;20031;-57
2023/02/08 07:45:39;;;;;;;21.80;14.60;;;3.30;86.10;;;;;;5103173;28;20046;-57
2023/02/08 07:48:05;;;;;;;19.73;14.48;;;3.30;86.10;;;;;;5103807;28;20036;-57
2023/02/08 07:50:31;;;;;;;21.17;13.32;;;3.30;86.00;;;;;;5104964;28;20020;-57
2023/02/08 07:52:56;;;;;;;19.58;14.68;;;3.30;86.00;;;;;;5103290;28;20115;-58
2023/02/08 07:55:22;;;;;;;17.85;13.80;;;3.30;85.90;;;;;;5086374;28;20060;-57
2023/02/08 07:57:48;;;;;;;18.38;14.40;;;3.30;85.90;;;;;;5103371;28;20028;-57
2023/02/08 08:00:14;;;;;;;17.85;14.18;;;3.30;85.90;;;;;;5104585;28;20091;-58
2023/02/08 08:02:40;;;;;;;20.25;14.05;;;3.30;86.50;;;;;;5103218;28;20052;-57
2023/02/08 08:05:06;;;;;;;19.73;14.07;;;3.30;85.80;;;;;;5103289;28;20032;-58
2023/02/08 08:07:31;;;;;;;26.63;14.73;;;3.30;85.80;;;;;;5086380;28;20054;-57
2023/02/08 08:09:57;;;;;;;23.90;14.48;;;3.30;85.60;;;;;;5104524;28;20376;-57
2023/02/08 08:12:25;;;;;;;24.92;14.55;;;3.40;85.60;;;;;;5103051;28;20024;-57
2023/02/08 08:14:51;;;;;;;27.73;15.57;;;3.40;85.50;;;;;;5086467;28;20406;-57
2023/02/08 08:17:17;;;;;;;18.67;14.18;;;3.40;85.40;;;;;;5113565;28;20039;-58
2023/02/08 08:19:43;;;;;;;27.35;15.23;;;3.40;85.40;;;;;;5123016;28;20036;-57
2023/02/08 08:22:08;;;;;;;24.63;14.38;;;3.40;85.40;;;;;;5123367;28;20051;-57
2023/02/08 08:24:34;;;;;;;30.90;14.55;;;3.40;85.40;;;;;;5122829;28;20024;-58
2023/02/08 08:27:09;;;;;;;32.88;15.38;;;3.40;85.40;;;;;;5122540;28;20034;-57
2023/02/08 08:29:35;;;;;;;26.65;14.75;;;3.40;85.30;;;;;;5124533;28;20031;-57
2023/02/08 08:32:01;;;;;;;26.33;14.98;;;3.40;85.30;;;;;;5124811;28;20036;-58
2023/02/08 08:34:29;;;;;;;25.42;14.85;;;3.40;85.30;;;;;;5121694;28;20040;-58
2023/02/08 08:36:56;;;;;;;34.22;15.73;;;3.50;85.40;;;;;;5104858;28;20024;-57
2023/02/08 08:39:22;;;;;;;41.65;14.38;;;3.40;85.20;;;;;;5122836;28;20035;-58
2023/02/08 08:41:47;;;;;;;38.65;15.77;;;3.40;85.30;;;;;;5123077;28;20028;-58
2023/02/08 08:44:13;;;;;;;33.03;15.07;;;3.50;85.30;;;;;;5105572;28;20035;-58
2023/02/08 08:46:38;;;;;;;36.00;14.77;;;3.50;85.30;;;;;;5126585;28;20046;-57
2023/02/08 08:49:04;;;;;;;30.52;15.73;;;3.50;85.30;;;;;;5127570;28;20380;-57
2023/02/08 08:51:34;;;;;;;37.25;15.38;;;3.60;85.30;;;;;;5110232;28;20114;-58
2023/02/08 08:54:00;;;;;;;37.53;15.70;;;3.50;85.30;;;;;;5126931;28;20020;-58
2023/02/08 08:56:25;;;;;;;38.25;15.50;;;3.60;85.30;;;;;;5128500;28;20031;-57
2023/02/08 08:58:51;;;;;;;42.58;15.93;;;3.50;85.20;;;;;;5128189;28;20080;-57
2023/02/08 09:01:16;;;;;;;43.05;16.55;;;3.60;85.20;;;;;;5126681;28;20039;-57
2023/02/08 09:03:42;;;;;;;42.88;16.40;;;3.60;85.10;;;;;;5126476;28;20027;-57
2023/02/08 09:06:07;;;;;;;33.85;15.63;;;3.60;85.00;;;;;;5126091;28;20053;-57
2023/02/08 09:08:33;;;;;;;42.58;14.85;;;3.60;85.00;;;;;;5127796;28;20020;-57
2023/02/08 09:11:06;;;;;;;40.60;15.55;;;3.60;84.80;;;;;;5126363;28;20024;-58
2023/02/08 09:13:32;;;;;;;37.42;16.40;;;3.60;84.80;;;;;;5127640;28;20019;-58
2023/02/08 09:15:58;;;;;;;47.45;16.30;;;3.60;84.80;;;;;;5127614;28;20028;-58
2023/02/08 09:18:23;;;;;;;34.65;15.27;;;3.70;84.80;;;;;;5127559;28;20032;-57
2023/02/08 09:20:49;;;;;;;37.25;15.02;;;3.60;84.80;;;;;;5109240;28;20059;-58
2023/02/08 09:23:14;;;;;;;48.60;15.55;;;3.70;84.80;;;;;;5126157;28;20035;-58
2023/02/08 09:25:40;;;;;;;43.25;15.93;;;3.70;84.80;;;;;;5126056;28;20027;-57
2023/02/08 09:28:05;;;;;;;38.00;15.88;;;3.70;84.70;;;;;;5109117;28;20031;-57
2023/02/08 09:30:31;;;;;;;41.60;15.05;;;3.70;84.60;;;;;;5127599;28;20429;-58
2023/02/08 09:32:57;;;;;;;40.08;15.77;;;3.70;84.60;;;;;;5092197;28;20367;-58
2023/02/08 09:35:22;;;;;;;51.85;15.50;;;3.70;84.50;;;;;;5125979;28;20045;-58
2023/02/08 09:37:53;;;;;;;31.92;14.23;;;3.80;84.60;;;;;;5125982;28;20431;-57
2023/02/08 09:40:23;;;;;;;36.20;16.20;;;3.80;84.60;;;;;;5093233;28;20032;-57
2023/02/08 09:43:09;;;;;;;39.72;16.92;;;3.80;84.60;;;;;;5108170;28;20084;-58
2023/02/08 09:45:37;;;;;;;42.92;17.48;;;3.80;84.50;;;;;;5111370;28;20094;-57
2023/02/08 09:48:14;;;;;;;47.58;16.40;;;3.80;84.80;;;;;;5125134;28;20035;-58
2023/02/08 09:50:52;;;;;;;51.83;16.50;;;3.90;84.70;;;;;;5125437;28;20023;-57
2023/02/08 09:53:31;;;;;;;68.32;18.77;;;3.90;84.60;;;;;;5125262;28;20449;-58
2023/02/08 09:55:58;;;;;;;43.08;16.25;;;3.90;84.60;;;;;;5108617;28;20032;-57
2023/02/08 09:58:36;;;;;;;53.13;15.88;;;4.00;84.70;;;;;;5125672;28;20111;-57
2023/02/08 10:01:02;;;;;;;44.42;16.75;;;4.00;84.70;;;;;;5109748;28;20035;-57
2023/02/08 10:03:40;;;;;;;57.83;17.17;;;4.00;84.70;;;;;;5108341;28;20023;-58
2023/02/08 10:06:07;;;;;;;75.25;18.38;;;4.10;84.70;;;;;;5108476;28;20039;-57
2023/02/08 10:08:33;;;;;;;56.17;17.90;;;4.10;84.60;;;;;;5125200;28;20058;-58
2023/02/08 10:11:40;;;;;;;50.65;17.38;;;4.10;84.80;;;;;;5125233;28;20028;-57
2023/02/08 10:14:06;;;;;;;52.50;18.83;;;4.10;84.70;;;;;;5090966;28;20178;-57
2023/02/08 10:16:42;;;;;;;57.17;18.48;;;4.20;84.90;;;;;;5126553;28;20039;-58
2023/02/08 10:19:45;;;;;;;50.88;17.55;;;4.20;85.20;;;;;;5126248;28;20035;-58
2023/02/08 10:22:14;;;;;;;59.75;17.17;;;4.30;85.00;;;;;;5126168;28;20029;-58
2023/02/08 10:24:58;;;;;;;69.15;18.35;;;4.30;85.00;;;;;;5125996;28;20031;-58
2023/02/08 10:27:42;;;;;;;72.10;18.83;;;4.30;85.20;;;;;;5125804;28;20106;-58
2023/02/08 10:30:35;;;;;;;78.18;19.90;;;4.40;85.20;;;;;;5124259;28;20452;-58
2023/02/08 10:33:02;;;;;;;66.63;19.00;;;4.40;85.70;;;;;;5126025;28;20019;-57
2023/02/08 10:35:31;;;;;;;61.90;18.95;;;4.40;85.00;;;;;;5124443;28;20062;-58
2023/02/08 10:37:56;;;;;;;65.00;17.88;;;4.50;85.00;;;;;;5125719;28;20031;-57
2023/02/08 10:40:37;;;;;;;70.68;19.10;;;4.50;85.10;;;;;;5107550;28;20525;-57
2023/02/08 10:43:30;;;;;;;96.72;20.95;;;4.50;85.10;;;;;;5124280;28;20111;-58
2023/02/08 10:46:14;;;;;;;84.90;21.23;;;4.50;85.20;;;;;;5126195;28;20074;-58
2023/02/08 10:48:53;;;;;;;106.15;19.60;;;4.60;85.40;;;;;;5107699;28;20032;-57
2023/02/08 10:51:19;;;;;;;98.22;20.05;;;4.60;85.40;;;;;;5124068;28;20028;-57
2023/02/08 10:53:45;;;;;;;66.57;19.15;;;4.60;85.30;;;;;;5123828;28;20047;-57
2023/02/08 10:56:33;;;;;;;79.75;19.83;;;4.60;85.10;;;;;;5107371;28;20032;-57
2023/02/08 10:58:59;;;;;;;92.90;19.95;;;4.70;85.00;;;;;;5109993;28;20071;-57
2023/02/08 11:01:25;;;;;;;78.63;19.67;;;4.70;85.20;;;;;;5107987;28;20039;-57
2023/02/08 11:04:11;;;;;;;108.47;24.10;;;4.70;85.10;;;;;;5107888;28;20035;-58
2023/02/08 11:06:37;;;;;;;110.78;21.50;;;4.80;85.20;;;;;;5090669;28;20144;-58
2023/02/08 11:09:03;;;;;;;92.68;20.60;;;4.80;85.10;;;;;;5125394;28;20024;-58
2023/02/08 11:11:36;;;;;;;92.20;21.50;;;4.80;84.80;;;;;;5123968;28;20490;-57
2023/02/08 11:14:30;;;;;;;111.53;24.58;;;4.80;84.70;;;;;;5102024;28;20091;-57
2023/02/08 11:16:57;;;;;;;110.85;25.70;;;4.90;84.80;;;;;;5101297;28;20063;-58
2023/02/08 11:19:31;;;;;;;107.50;23.95;;;4.90;84.80;;;;;;5103524;28;20488;-57
2023/02/08 11:21:58;;;;;;;145.52;28.58;;;4.90;84.60;;;;;;5103410;28;20039;-58
2023/02/08 11:24:42;;;;;;;290.00;39.35;;;4.90;84.60;;;;;;5086223;28;20039;-58
2023/02/08 11:27:27;;;;;;;173.63;27.90;;;5.00;84.80;;;;;;5070326;28;20345;-57
2023/02/08 11:30:17;;;;;;;128.23;26.77;;;5.00;84.50;;;;;;5104712;28;20020;-57
2023/02/08 11:32:47;;;;;;;137.43;28.73;;;5.00;84.40;;;;;;5104600;28;20027;-58
2023/02/08 11:35:25;;;;;;;291.05;40.95;;;5.00;84.30;;;;;;5103429;28;20057;-57
2023/02/08 11:37:55;;;;;;;289.38;40.92;;;5.10;84.50;;;;;;5103225;28;20048;-57
2023/02/08 11:40:33;;;;;;;401.73;52.03;;;5.10;84.40;;;;;;5087145;28;20046;-57
2023/02/08 11:42:59;;;;;;;126.50;26.95;;;5.10;84.40;;;;;;5088131;28;20082;-57
2023/02/08 11:45:29;;;;;;;153.57;27.50;;;5.10;84.30;;;;;;5069469;28;20036;-57
2023/02/08 11:47:55;;;;;;;130.13;27.23;;;5.20;84.20;;;;;;5103044;28;20036;-57
2023/02/08 11:50:26;;;;;;;124.70;23.95;;;5.20;84.30;;;;;;5086285;28;20039;-58
2023/02/08 11:52:57;;;;;;;92.75;25.33;;;5.20;84.10;;;;;;5086770;28;20020;-58
2023/02/08 11:55:28;;;;;;;99.57;22.65;;;5.20;84.00;;;;;;5086459;28;20024;-58
2023/02/08 11:57:54;;;;;;;110.60;24.23;;;5.20;83.90;;;;;;5102886;28;20032;-57
2023/02/08 12:00:25;;;;;;;113.60;24.05;;;5.20;83.90;;;;;;5104133;28;20034;-56
2023/02/08 12:02:51;;;;;;;118.43;23.20;;;5.30;84.00;;;;;;5069545;28;20043;-56
2023/02/08 12:05:17;;;;;;;100.85;21.92;;;5.30;84.00;;;;;;5085558;28;20097;-57
2023/02/08 12:07:55;;;;;;;110.75;23.63;;;5.30;83.90;;;;;;5068951;28;20560;-56
2023/02/08 12:10:30;;;;;;;107.63;23.27;;;5.30;83.90;;;;;;5104229;28;20051;-56
2023/02/08 12:13:05;;;;;;;172.77;28.75;;;5.40;83.80;;;;;;5086746;28;20448;-57
2023/02/08 12:15:40;;;;;;;;;;;5.40;83.70;;;;;;5103325;28;20036;-57
2023/02/08 12:18:25;;;;;;;94.68;22.05;;;5.40;83.70;;;;;;5104262;28;19976;-57
2023/02/08 12:21:01;;;;;;;120.63;24.55;;;5.40;83.80;;;;;;5108290;28;20039;-56
2023/02/08 12:23:40;;;;;;;125.55;24.90;;;5.40;84.00;;;;;;5091011;28;20450;-56
2023/02/08 12:26:11;;;;;;;106.32;22.95;;;5.40;83.90;;;;;;5107156;28;20036;-56
2023/02/08 12:28:40;;;;;;;85.95;23.17;;;5.40;83.40;;;;;;5106797;28;20032;-57
2023/02/08 12:31:13;;;;;;;91.85;21.67;;;5.50;83.20;;;;;;5107220;28;20107;-56
2023/02/08 12:34:00;;;;;;;80.32;21.58;;;5.50;83.20;;;;;;5090050;28;20024;-57
2023/02/08 12:36:47;;;;;;;105.68;21.50;;;5.50;83.70;;;;;;5096537;28;20043;-56
2023/02/08 12:42:15;;;;;;;100.30;21.50;;;5.60;83.00;;;;;;5107155;28;20105;-57
2023/02/08 12:45:01;;;;;;;96.38;20.20;;;5.60;82.90;;;;;;5098113;28;20043;-56
2023/02/08 12:47:48;;;;;;;115.78;23.60;;;5.60;82.90;;;;;;5100486;28;20032;-56
2023/02/08 12:50:25;;;;;;;74.97;20.90;;;5.70;82.90;;;;;;5095880;28;20044;-57
2023/02/08 12:53:02;;;;;;;96.72;20.77;;;5.70;82.90;;;;;;5104169;28;20044;-57